Wetterdaten: Woche 08.11.10 - 14.11.10 (KW45)
Datum Zeit Temp. A. Feuchte A. Luftdruck Regen Wind Richtung Taupunkt Windchill Windben
08.11.2010 00:00 6,4 C 84 % 996,5 hPa 0,0 l/m 25,9 km/h SW 3,9 C -3,3 C 14,4 km/h
08.11.2010 01:00 5,9 C 84 % 995,4 hPa 0,0 l/m 25,3 km/h S-SW 3,4 C -3,8 C 14,0 km/h
08.11.2010 02:00 4,6 C 86 % 994,7 hPa 0,0 l/m 18,8 km/h S-SW 2,5 C -3,2 C 10,4 km/h
08.11.2010 03:00 5,1 C 84 % 993,8 hPa 0,0 l/m 22,7 km/h S-SW 2,6 C -4,0 C 12,6 km/h
08.11.2010 04:00 5,3 C 83 % 993,0 hPa 0,0 l/m 21,4 km/h S 2,7 C -3,3 C 11,9 km/h
08.11.2010 05:00 5,5 C 80 % 991,8 hPa 0,0 l/m 16,2 km/h S-SW 2,3 C -0,9 C 9,0 km/h
08.11.2010 06:00 5,2 C 83 % 991,2 hPa 0,0 l/m 7,8 km/h S-SW 2,6 C 4,0 C 4,3 km/h
08.11.2010 07:00 5,1 C 83 % 990,4 hPa 0,0 l/m 19,4 km/h S-SW 2,5 C -2,8 C 10,8 km/h
08.11.2010 08:00 5,8 C 80 % 989,5 hPa 0,0 l/m 20,1 km/h S 2,6 C -2,2 C 11,2 km/h
08.11.2010 09:00 5,3 C 77 % 988,7 hPa 0,0 l/m 3,2 km/h S-SW 1,6 C 5,3 C 1,8 km/h
08.11.2010 10:00 6,6 C 72 % 987,8 hPa 0,0 l/m 17,5 km/h W-SW 1,9 C -0,1 C 9,7 km/h
08.11.2010 11:00 6,8 C 70 % 986,1 hPa 0,0 l/m 16,8 km/h SW 1,7 C 0,4 C 9,4 km/h
08.11.2010 12:00 9,2 C 64 % 984,3 hPa 0,0 l/m 13,0 km/h W-NW 2,8 C 5,1 C 7,2 km/h
08.11.2010 13:00 10,9 C 57 % 982,0 hPa 0,0 l/m 0,0 km/h S-SO 2,7 C 10,9 C 0,0 km/h
08.11.2010 14:00 14,1 C 50 % 980,4 hPa 0,0 l/m 0,0 km/h SO 3,8 C 14,1 C 0,0 km/h
08.11.2010 15:00 8,1 C 62 % 979,3 hPa 0,0 l/m 17,5 km/h S-SO 1,3 C 1,8 C 9,7 km/h
08.11.2010 16:00 7,7 C 64 % 978,4 hPa 0,0 l/m 0,0 km/h SO 1,3 C 7,7 C 0,0 km/h
08.11.2010 17:00 5,8 C 70 % 977,8 hPa 0,0 l/m 19,4 km/h S-SO 0,8 C -1,9 C 10,8 km/h
08.11.2010 18:00 6,3 C 69 % 977,6 hPa 0,0 l/m 14,9 km/h O-SO 1,0 C 0,7 C 8,3 km/h
08.11.2010 19:00 5,5 C 77 % 978,1 hPa 0,0 l/m 7,1 km/h S-SO 1,8 C 4,9 C 4,0 km/h
08.11.2010 20:00 5,8 C 78 % 977,5 hPa 0,0 l/m 0,0 km/h S 2,3 C 5,8 C 0,0 km/h
08.11.2010 21:00 6,4 C 76 % 977,5 hPa 0,0 l/m 33,7 km/h S-SW 2,5 C -5,3 C 18,7 km/h
08.11.2010 22:00 7,4 C 75 % 977,3 hPa 0,0 l/m 25,3 km/h S-SW 3,3 C -1,8 C 14,0 km/h
08.11.2010 23:00 7,6 C 72 % 977,0 hPa 0,0 l/m 22,7 km/h S-SW 2,9 C -0,7 C 12,6 km/h
09.11.2010 00:00 7,8 C 70 % 976,9 hPa 0,0 l/m 18,8 km/h S-SW 2,7 C 0,9 C 10,4 km/h
09.11.2010 01:00 6,8 C 73 % 977,0 hPa 0,0 l/m 7,1 km/h S 2,3 C 6,2 C 4,0 km/h
09.11.2010 02:00 6,7 C 75 % 976,7 hPa 0,0 l/m 0,0 km/h NO 2,6 C 6,7 C 0,0 km/h
09.11.2010 03:00 6,1 C 80 % 976,6 hPa 0,0 l/m 0,0 km/h S 2,9 C 6,1 C 0,0 km/h
09.11.2010 04:00 7,2 C 81 % 976,8 hPa 0,0 l/m 4,5 km/h S-SO 4,2 C 7,2 C 2,5 km/h
09.11.2010 05:00 6,9 C 83 % 977,2 hPa 0,0 l/m 14,3 km/h S 4,2 C 1,7 C 7,9 km/h
09.11.2010 06:00 6,8 C 83 % 977,8 hPa 0,0 l/m 4,5 km/h S-SO 4,1 C 6,8 C 2,5 km/h
09.11.2010 07:00 5,9 C 84 % 977,7 hPa 0,0 l/m 3,2 km/h S-SO 3,4 C 5,9 C 1,8 km/h
09.11.2010 08:00 7,6 C 80 % 978,1 hPa 0,0 l/m 16,2 km/h SO 4,4 C 1,7 C 9,0 km/h
09.11.2010 09:00 8,7 C 77 % 978,6 hPa 0,0 l/m 11,0 km/h S-SO 4,9 C 5,6 C 6,1 km/h
09.11.2010 10:00 13,3 C 64 % 978,3 hPa 0,0 l/m 8,4 km/h W-SW 6,6 C 12,1 C 4,7 km/h
09.11.2010 11:00 14,4 C 59 % 978,2 hPa 0,0 l/m 24,0 km/h W-SW 6,5 C 8,0 C 13,3 km/h
09.11.2010 12:00 12,5 C 60 % 978,2 hPa 0,0 l/m 28,5 km/h S 5,0 C 4,5 C 15,8 km/h
09.11.2010 13:00 13,3 C 57 % 977,8 hPa 0,0 l/m 11,0 km/h S-SW 5,0 C 10,8 C 6,1 km/h
09.11.2010 14:00 14,9 C 56 % 978,2 hPa 0,0 l/m 22,7 km/h S 6,2 C 9,0 C 12,6 km/h
09.11.2010 15:00 13,6 C 55 % 978,5 hPa 0,0 l/m 9,1 km/h S-SW 4,7 C 12,0 C 5,0 km/h
09.11.2010 16:00 10,8 C 62 % 978,8 hPa 0,0 l/m 11,0 km/h O-SO 3,8 C 7,9 C 6,1 km/h
09.11.2010 17:00 9,0 C 69 % 978,9 hPa 0,0 l/m 13,0 km/h S-SO 3,6 C 4,9 C 7,2 km/h
09.11.2010 18:00 8,9 C 70 % 979,3 hPa 0,0 l/m 8,4 km/h S-SO 3,7 C 7,4 C 4,7 km/h
09.11.2010 19:00 9,2 C 70 % 979,7 hPa 0,0 l/m 5,2 km/h SO 4,0 C 9,2 C 2,9 km/h
09.11.2010 20:00 9,9 C 68 % 980,4 hPa 0,0 l/m 9,7 km/h SW 4,3 C 7,7 C 5,4 km/h
09.11.2010 21:00 10,1 C 69 % 981,0 hPa 0,0 l/m 0,0 km/h S-SW 4,7 C 10,1 C 0,0 km/h
09.11.2010 22:00 9,8 C 71 % 981,8 hPa 0,0 l/m 13,0 km/h SW 4,8 C 5,8 C 7,2 km/h
09.11.2010 23:00 9,6 C 71 % 982,0 hPa 0,0 l/m 7,8 km/h S 4,6 C 8,6 C 4,3 km/h
10.11.2010 00:00 9,4 C 71 % 982,4 hPa 0,0 l/m 10,4 km/h S-SO 4,4 C 6,7 C 5,8 km/h
10.11.2010 01:00 8,4 C 75 % 982,8 hPa 0,0 l/m 0,0 km/h O-SO 4,2 C 8,4 C 0,0 km/h
10.11.2010 02:00 8,3 C 77 % 983,4 hPa 0,0 l/m 0,0 km/h S-SO 4,5 C 8,3 C 0,0 km/h
10.11.2010 03:00 7,6 C 82 % 983,6 hPa 0,0 l/m 23,3 km/h W-SW 4,7 C -0,9 C 13,0 km/h
10.11.2010 04:00 8,4 C 79 % 984,2 hPa 0,0 l/m 0,0 km/h S-SO 5,0 C 8,4 C 0,0 km/h
10.11.2010 05:00 7,3 C 85 % 985,0 hPa 0,4 l/m 0,0 km/h O-NO 4,9 C 7,3 C 0,0 km/h
10.11.2010 06:00 7,3 C 86 % 985,3 hPa 0,0 l/m 0,0 km/h N-NO 5,1 C 7,3 C 0,0 km/h
10.11.2010 07:00 7,4 C 86 % 986,2 hPa 0,0 l/m 0,0 km/h NO 5,2 C 7,4 C 0,0 km/h
10.11.2010 08:00 8,0 C 86 % 987,2 hPa 0,0 l/m 0,0 km/h N-NW 5,8 C 8,0 C 0,0 km/h
10.11.2010 09:00 10,9 C 79 % 988,1 hPa 0,0 l/m 0,0 km/h NO 7,4 C 10,9 C 0,0 km/h
10.11.2010 10:00 12,7 C 74 % 988,5 hPa 0,0 l/m 0,0 km/h W 8,2 C 12,7 C 0,0 km/h
10.11.2010 11:00 13,1 C 69 % 989,5 hPa 0,0 l/m 21,4 km/h SW 7,5 C 6,9 C 11,9 km/h
10.11.2010 12:00 13,6 C 65 % 990,1 hPa 0,0 l/m 22,0 km/h W-SW 7,1 C 7,4 C 12,2 km/h
10.11.2010 13:00 11,7 C 67 % 990,5 hPa 0,0 l/m 29,8 km/h SW 5,8 C 3,1 C 16,6 km/h
10.11.2010 14:00 9,0 C 81 % 991,9 hPa 0,0 l/m 22,0 km/h SW 5,9 C 1,3 C 12,2 km/h
10.11.2010 15:00 9,0 C 82 % 992,9 hPa 0,0 l/m 14,3 km/h W-SW 6,1 C 4,2 C 7,9 km/h
10.11.2010 16:00 8,9 C 83 % 993,6 hPa 0,0 l/m 0,6 km/h S-SW 6,2 C 8,9 C 0,4 km/h
10.11.2010 17:00 7,9 C 85 % 995,2 hPa 0,4 l/m 27,9 km/h W-SW 5,5 C -1,8 C 15,5 km/h
10.11.2010 18:00 7,6 C 86 % 996,8 hPa 0,4 l/m 20,7 km/h SW 5,4 C -0,1 C 11,5 km/h
10.11.2010 19:00 7,6 C 86 % 998,7 hPa 0,4 l/m 22,0 km/h W 5,4 C -0,5 C 12,2 km/h
10.11.2010 20:00 6,9 C 87 % 1000,7 hPa 0,0 l/m 0,0 km/h W 4,9 C 6,9 C 0,0 km/h
10.11.2010 21:00 6,3 C 86 % 1003,0 hPa 0,4 l/m 0,0 km/h W-NW 4,1 C 6,3 C 0,0 km/h
10.11.2010 22:00 6,3 C 86 % 1004,5 hPa 0,0 l/m 0,0 km/h W 4,1 C 6,3 C 0,0 km/h
10.11.2010 23:00 6,2 C 86 % 1005,8 hPa 0,0 l/m 0,0 km/h S-SO 4,0 C 6,2 C 0,0 km/h
11.11.2010 00:00 5,8 C 85 % 1006,6 hPa 0,0 l/m 0,0 km/h N-NO 3,5 C 5,8 C 0,0 km/h
11.11.2010 01:00 5,2 C 86 % 1007,9 hPa 0,7 l/m 0,0 km/h O-NO 3,1 C 5,2 C 0,0 km/h
11.11.2010 02:00 4,6 C 87 % 1008,9 hPa 0,4 l/m 0,0 km/h NW 2,6 C 4,6 C 0,0 km/h
11.11.2010 03:00 4,9 C 87 % 1009,3 hPa 0,0 l/m 0,0 km/h W-SW 2,9 C 4,9 C 0,0 km/h
11.11.2010 04:00 5,0 C 87 % 1009,9 hPa 0,0 l/m 0,0 km/h W-SW 3,0 C 5,0 C 0,0 km/h
11.11.2010 05:00 5,3 C 87 % 1010,8 hPa 0,0 l/m 0,0 km/h SW 3,3 C 5,3 C 0,0 km/h
11.11.2010 06:00 5,1 C 87 % 1011,0 hPa 0,0 l/m 1,3 km/h W-SW 3,1 C 5,1 C 0,7 km/h
11.11.2010 07:00 2,7 C 87 % 1011,1 hPa 0,0 l/m 0,0 km/h NO 0,8 C 2,7 C 0,0 km/h
11.11.2010 08:00 2,9 C 87 % 1011,5 hPa 0,0 l/m 0,0 km/h S-SW 1,0 C 2,9 C 0,0 km/h
11.11.2010 09:00 8,3 C 80 % 1011,6 hPa 0,0 l/m 27,2 km/h W 5,1 C -1,1 C 15,1 km/h
11.11.2010 10:00 8,6 C 76 % 1011,4 hPa 0,0 l/m 18,8 km/h W-SW 4,6 C 1,9 C 10,4 km/h
11.11.2010 11:00 8,1 C 75 % 1011,0 hPa 0,0 l/m 35,0 km/h SW 3,9 C -3,1 C 19,4 km/h
11.11.2010 12:00 9,8 C 66 % 1009,7 hPa 0,0 l/m 44,1 km/h SW 3,8 C -2,0 C 24,5 km/h
11.11.2010 13:00 10,5 C 63 % 1008,7 hPa 0,0 l/m 29,8 km/h W 3,8 C 1,4 C 16,6 km/h
11.11.2010 14:00 10,4 C 62 % 1007,4 hPa 0,0 l/m 55,1 km/h SW 3,4 C -2,1 C 30,6 km/h
11.11.2010 15:00 8,9 C 68 % 1006,8 hPa 0,0 l/m 23,3 km/h SW 3,3 C 0,8 C 13,0 km/h
11.11.2010 16:00 8,3 C 71 % 1005,9 hPa 0,0 l/m 7,8 km/h S-SW 3,4 C 7,2 C 4,3 km/h
11.11.2010 17:00 8,9 C 61 % 1004,6 hPa 0,0 l/m 22,0 km/h SW 1,8 C 1,2 C 12,2 km/h
11.11.2010 18:00 8,5 C 63 % 1003,5 hPa 0,0 l/m 20,7 km/h SW 1,9 C 1,1 C 11,5 km/h
11.11.2010 19:00 7,9 C 79 % 1001,7 hPa 0,4 l/m 22,0 km/h SW 4,5 C -0,1 C 12,2 km/h
11.11.2010 20:00 9,3 C 79 % 1001,1 hPa 0,4 l/m 40,2 km/h W-SW 5,8 C -2,2 C 22,3 km/h
11.11.2010 21:00 9,9 C 82 % 1000,4 hPa 0,0 l/m 23,3 km/h S-SW 7,0 C 2,2 C 13,0 km/h
11.11.2010 22:00 11,1 C 80 % 1000,0 hPa 0,0 l/m 41,5 km/h W-SW 7,8 C 0,3 C 23,0 km/h
11.11.2010 23:00 11,8 C 80 % 999,5 hPa 0,0 l/m 52,5 km/h W-SW 8,5 C 0,2 C 29,2 km/h
12.11.2010 00:00 11,9 C 80 % 999,2 hPa 0,0 l/m 23,3 km/h W-SW 8,6 C 4,8 C 13,0 km/h
12.11.2010 01:00 12,5 C 80 % 999,1 hPa 0,0 l/m 51,2 km/h W-SW 9,1 C 1,4 C 28,4 km/h
12.11.2010 02:00 13,1 C 78 % 998,7 hPa 0,0 l/m 54,4 km/h W-SW 9,4 C 2,1 C 30,2 km/h
12.11.2010 03:00 13,1 C 79 % 999,2 hPa 0,0 l/m 48,6 km/h S-SW 9,5 C 2,6 C 27,0 km/h
12.11.2010 04:00 13,2 C 81 % 999,6 hPa 0,0 l/m 45,4 km/h SW 10,0 C 3,0 C 25,2 km/h
12.11.2010 05:00 13,1 C 80 % 1000,7 hPa 0,0 l/m 18,8 km/h S-SW 9,7 C 7,6 C 10,4 km/h
12.11.2010 06:00 12,8 C 84 % 1001,0 hPa 0,0 l/m 28,5 km/h SW 10,2 C 4,9 C 15,8 km/h
12.11.2010 07:00 9,9 C 85 % 1002,3 hPa 0,7 l/m 0,0 km/h W-SW 7,5 C 9,9 C 0,0 km/h
12.11.2010 08:00 10,3 C 86 % 1002,6 hPa 0,0 l/m 19,4 km/h W 8,1 C 3,9 C 10,8 km/h
12.11.2010 09:00 12,7 C 84 % 1003,7 hPa 0,0 l/m 21,4 km/h W-SW 10,1 C 6,4 C 11,9 km/h
12.11.2010 10:00 13,1 C 75 % 1004,7 hPa 0,0 l/m 26,6 km/h W-SW 8,8 C 5,7 C 14,8 km/h
12.11.2010 11:00 12,4 C 76 % 1005,3 hPa 0,0 l/m 34,3 km/h SW 8,3 C 3,3 C 19,1 km/h
12.11.2010 12:00 12,5 C 76 % 1005,4 hPa 0,0 l/m 29,2 km/h S-SW 8,4 C 4,3 C 16,2 km/h
12.11.2010 13:00 12,3 C 75 % 1005,6 hPa 0,0 l/m 27,2 km/h SW 8,0 C 4,5 C 15,1 km/h
12.11.2010 14:00 12,3 C 74 % 1005,4 hPa 0,0 l/m 35,6 km/h W 7,8 C 2,9 C 19,8 km/h
12.11.2010 15:00 12,2 C 76 % 1005,2 hPa 0,0 l/m 20,7 km/h S 8,1 C 5,9 C 11,5 km/h
12.11.2010 16:00 12,8 C 83 % 1004,5 hPa 0,0 l/m 28,5 km/h SW 10,0 C 4,9 C 15,8 km/h
12.11.2010 17:00 14,4 C 82 % 1003,6 hPa 0,0 l/m 36,9 km/h W-SW 11,4 C 5,8 C 20,5 km/h
12.11.2010 18:00 15,0 C 82 % 1003,3 hPa 0,0 l/m 35,6 km/h W-SW 12,0 C 6,9 C 19,8 km/h
12.11.2010 19:00 15,6 C 80 % 1004,4 hPa 0,0 l/m 55,1 km/h SW 12,2 C 5,9 C 30,6 km/h
12.11.2010 20:00 15,5 C 73 % 1005,4 hPa 0,0 l/m 34,3 km/h SW 10,7 C 7,8 C 19,1 km/h
12.11.2010 21:00 15,3 C 72 % 1006,0 hPa 0,0 l/m 42,8 km/h S 10,3 C 6,5 C 23,8 km/h
12.11.2010 22:00 15,1 C 75 % 1006,2 hPa 0,0 l/m 29,2 km/h SW 10,7 C 8,0 C 16,2 km/h
12.11.2010 23:00 15,3 C 74 % 1005,0 hPa 0,0 l/m 44,7 km/h W-SW 10,7 C 6,3 C 24,8 km/h
13.11.2010 00:00 15,5 C 72 % 1005,6 hPa 0,0 l/m 46,7 km/h SW 10,5 C 6,4 C 25,9 km/h
13.11.2010 01:00 15,5 C 72 % 1005,8 hPa 0,0 l/m 29,2 km/h W-SW 10,5 C 8,5 C 16,2 km/h
13.11.2010 02:00 15,4 C 72 % 1005,5 hPa 0,0 l/m 35,0 km/h W-SW 10,4 C 7,5 C 19,4 km/h
13.11.2010 03:00 15,5 C 70 % 1005,7 hPa 0,0 l/m 41,5 km/h W 10,1 C 6,9 C 23,0 km/h
13.11.2010 04:00 15,4 C 70 % 1005,7 hPa 0,0 l/m 61,6 km/h W-SW 10,0 C 5,3 C 34,2 km/h
13.11.2010 05:00 15,3 C 70 % 1005,3 hPa 0,0 l/m 26,6 km/h SW 9,9 C 8,7 C 14,8 km/h
13.11.2010 06:00 15,2 C 70 % 1005,4 hPa 0,0 l/m 37,6 km/h SW 9,8 C 6,9 C 20,9 km/h
13.11.2010 07:00 15,2 C 70 % 1005,7 hPa 0,0 l/m 33,7 km/h W-SW 9,8 C 7,4 C 18,7 km/h
13.11.2010 08:00 15,4 C 70 % 1005,7 hPa 0,0 l/m 24,6 km/h SW 10,0 C 9,2 C 13,7 km/h
13.11.2010 09:00 15,6 C 69 % 1005,3 hPa 0,0 l/m 27,9 km/h SW 9,9 C 8,9 C 15,5 km/h
13.11.2010 10:00 15,9 C 68 % 1005,7 hPa 0,0 l/m 25,9 km/h W-SW 10,0 C 9,7 C 14,4 km/h
13.11.2010 11:00 16,1 C 66 % 1005,7 hPa 0,0 l/m 34,3 km/h W-SW 9,7 C 8,6 C 19,1 km/h
13.11.2010 12:00 16,6 C 65 % 1005,1 hPa 0,0 l/m 22,7 km/h SW 10,0 C 11,2 C 12,6 km/h
13.11.2010 13:00 17,8 C 61 % 1004,4 hPa 0,0 l/m 36,3 km/h W-SW 10,2 C 10,8 C 20,2 km/h
13.11.2010 14:00 18,4 C 57 % 1003,8 hPa 0,0 l/m 8,4 km/h W-SW 9,7 C 17,5 C 4,7 km/h
13.11.2010 15:00 18,9 C 58 % 1003,6 hPa 0,0 l/m 20,7 km/h W 10,5 C 14,6 C 11,5 km/h
13.11.2010 16:00 16,4 C 62 % 1003,0 hPa 0,0 l/m 24,0 km/h SW 9,1 C 10,7 C 13,3 km/h
13.11.2010 17:00 13,6 C 71 % 1002,7 hPa 0,0 l/m 11,0 km/h S-SW 8,4 C 11,1 C 6,1 km/h
13.11.2010 18:00 11,9 C 76 % 1002,7 hPa 0,0 l/m 7,1 km/h S 7,8 C 11,4 C 4,0 km/h
13.11.2010 19:00 10,5 C 81 % 1003,0 hPa 0,0 l/m 3,2 km/h SW 7,4 C 10,5 C 1,8 km/h
13.11.2010 20:00 10,1 C 83 % 1002,6 hPa 0,0 l/m 0,0 km/h SO 7,3 C 10,1 C 0,0 km/h
13.11.2010 21:00 11,1 C 79 % 1002,5 hPa 0,0 l/m 0,0 km/h S-SW 7,6 C 11,1 C 0,0 km/h
13.11.2010 22:00 13,4 C 73 % 1002,4 hPa 0,0 l/m 0,0 km/h S-SO 8,7 C 13,4 C 0,0 km/h
13.11.2010 23:00 12,5 C 75 % 1002,2 hPa 0,0 l/m 2,6 km/h S 8,2 C 12,5 C 1,4 km/h
14.11.2010 00:00 11,4 C 78 % 1002,3 hPa 0,0 l/m 8,4 km/h S-SO 7,7 C 10,1 C 4,7 km/h
14.11.2010 01:00 11,9 C 76 % 1002,2 hPa 0,0 l/m 5,2 km/h SO 7,8 C 11,9 C 2,9 km/h
14.11.2010 02:00 10,8 C 78 % 1001,7 hPa 0,0 l/m 1,9 km/h O-SO 7,1 C 10,8 C 1,1 km/h
14.11.2010 03:00 8,9 C 82 % 1001,1 hPa 0,0 l/m 0,0 km/h SO 6,0 C 8,9 C 0,0 km/h
14.11.2010 04:00 7,6 C 86 % 1000,7 hPa 0,0 l/m 1,9 km/h O-SO 5,4 C 7,6 C 1,1 km/h
14.11.2010 05:00 7,5 C 86 % 1000,1 hPa 0,0 l/m 0,0 km/h O-SO 5,3 C 7,5 C 0,0 km/h
14.11.2010 06:00 7,2 C 86 % 999,9 hPa 0,0 l/m 0,0 km/h SO 5,0 C 7,2 C 0,0 km/h
14.11.2010 07:00 6,4 C 87 % 1001,0 hPa 0,0 l/m 4,5 km/h O-SO 4,4 C 6,4 C 2,5 km/h
14.11.2010 08:00 8,4 C 86 % 1001,6 hPa 0,0 l/m 1,3 km/h O-NO 6,2 C 8,4 C 0,7 km/h
14.11.2010 09:00 13,3 C 77 % 1001,8 hPa 0,0 l/m 0,0 km/h O-NO 9,4 C 13,3 C 0,0 km/h
14.11.2010 10:00 19,5 C 64 % 1001,7 hPa 0,0 l/m 0,0 km/h SW 12,5 C 19,5 C 0,0 km/h
14.11.2010 11:00 20,3 C 53 % 1001,6 hPa 0,0 l/m 3,9 km/h S-SO 10,4 C 20,3 C 2,2 km/h
14.11.2010 12:00 19,9 C 54 % 1001,1 hPa 0,0 l/m 12,3 km/h SW 10,3 C 17,8 C 6,8 km/h
14.11.2010 13:00 20,4 C 50 % 1001,1 hPa 0,0 l/m 22,7 km/h S-SW 9,6 C 16,3 C 12,6 km/h
14.11.2010 14:00 21,0 C 47 % 1001,1 hPa 0,0 l/m 11,0 km/h S-SW 9,3 C 19,5 C 6,1 km/h
14.11.2010 15:00 21,6 C 46 % 1001,1 hPa 0,0 l/m 8,4 km/h SW 9,5 C 20,9 C 4,7 km/h
14.11.2010 16:00 17,6 C 56 % 1001,9 hPa 0,0 l/m 7,1 km/h SO 8,7 C 17,3 C 4,0 km/h
14.11.2010 17:00 13,8 C 69 % 1002,4 hPa 0,0 l/m 0,0 km/h S 8,2 C 13,8 C 0,0 km/h
14.11.2010 18:00 15,2 C 65 % 1003,0 hPa 0,0 l/m 0,0 km/h S-SW 8,7 C 15,2 C 0,0 km/h
14.11.2010 19:00 14,5 C 65 % 1003,8 hPa 0,0 l/m 16,8 km/h W-SW 8,0 C 10,0 C 9,4 km/h
14.11.2010 20:00 14,4 C 66 % 1004,5 hPa 0,0 l/m 0,0 km/h SW 8,1 C 14,4 C 0,0 km/h
14.11.2010 21:00 15,9 C 64 % 1005,4 hPa 0,0 l/m 27,9 km/h S-SW 9,1 C 9,3 C 15,5 km/h
14.11.2010 22:00 15,1 C 72 % 1006,5 hPa 0,0 l/m 20,7 km/h S 10,1 C 9,7 C 11,5 km/h
14.11.2010 23:00 13,6 C 79 % 1007,0 hPa 0,0 l/m 20,7 km/h S 10,0 C 7,7 C 11,5 km/h
Min-Datum _ 11.11.10 14.11.10 09.11.10 - 08.11.10 - 11.11.10 08.11.10 08.11.10
_ Min-Zeit 07:30 15:30 03:30 - 13:30 - 07:30 21:30 13:30
Minimum _ 2,7 C 46 % 976,6 hPa - 0,0 km/h - 0,8 C -5,3 C 0,0 km/h
Max-Datum _ 14.11.10 10.11.10 11.11.10 11.11.10 13.11.10 - 14.11.10 14.11.10 13.11.10
_ Max-Zeit 15:30 20:30 09:30 01:30 04:30 - 10:30 15:30 04:30
Maximum _ 21,6 C 87 % 1011,6 hPa 0,7 l/m 61,6 km/h
W-SW
- 12,5 C 20,9 C 34,2 km/h
W-SW
Durchschnitt _ 10,7 C 74 % 996,0 hPa #4,3 l/m 16,8 km/h SW 6,2 C 6,2 C 9,3 km/h